Aeroporto :
LOGIN :

Iscrizione | Disclaimer

   EN    FR    IT 

 










Sommario :    VFR   VFR Marginale   IFR   IFR Intensivo   IFR Molto Intensivo
Visibilità : 
Base nubi : 
>= 8 km
>= 3000ft
5 / 8 km
1000 / 3000 ft
1500m / 5 km
500 / 1000 ft
800 / 1500m
200 / 500 ft
< 800m
< 200 ft
Simboli :   Temporali  Nebbia  Neve Forte  Precipitazioni Forti  Vento > 20 kt
SIGMETs :   Varie  Temporali  Ghiacco  Turbolenza  Onda orograficha  Ceneri Vulcaniche






- Altitudine del aeroporto : 401 ft
- Codice IATA : LEQ


EGHC - Land's End

ULTIMO METAR :
  • 131420Z 25007KT 9999 FEW008 SCT011CB BKN017 05/04 Q0992

METARs OBSOLETI :
  • 131350Z 28015KT 9999 -SHRA SCT007 BKN015 05/04 Q0993
  • 131320Z 29023G33KT 3000 -SHRA BKN008 04/03 Q0994 RESHRA
  • 131250Z 21016KT 6000 SHRA BKN012 SCT017 08/06 Q0994
  • 131220Z 21018KT 9999 FEW012 SCT017 BKN030 08/06 Q0995
  • 131150Z 21020KT 9999 VCSH FEW012 SCT025 08/06 Q0997

TAF TAF EGHC
Valido dal 13 a 15 ore il 13 a 18 ore UTC


131402Z 1315/1318 29020KT 9999 SCT025
TEMPO 1315/1318 6000 SHRA BKN012
PROB40
TEMPO 1315/1318 29030G40KT 4000 +SHRA BKN007



MetMap, La meteo Aeronautica in un colpo d'occhio ! - Copyright ORBIFLY Dicembre 2007 - Disclaimer

ORBIFLY MET'MAP TEAM :

Programmazione e sviluppo : Alexandra Zaïnal
Concezione e sviluppo : Baudouin d'Aumeries
Co-Programmazione e sviluppo : Marc-Olivier Méhu
Supporto tecnico e logistico : Manuel Goepfert
Aiuto per la traduzione : Arnaldo La Scala

Contatto : metmap@orbifly.com




FONTI E CREDITI :

   NOAA